• Join FlightAware (Why Join?)
  • Login
  • US Flag 
09:18PM EDT


 

Airport Tracker/Info


-or-


 

Live Flight TrackerFlight Track Log ✈ SWA2353 ✈ 02-May-2013 ✈ KPHL - KMDW

Flight Track Log - Related Links

Times and Time Zones

All times are in EDT time to prevent confusion due to time zone crossing. See the SWA2353 flight status page for this flight to view local times or setup timezone preferences in your user account.

Time Position Orientation Groundspeed Altitude Reporting Facility
EDT Latitude Longitude Course Direction KTS MPH feet Rate Location/Type
07:04PM 39.8667 -75.2833 237° Southwest 164 189 800  Level Philadelphia TRACON
07:04PM 39.8500 -75.3167 237° Southwest 185 213 1,700 1,980 Climbing Philadelphia TRACON
07:05PM 39.8333 -75.4000 255° West 237 273 3,800 2,700 Climbing Philadelphia TRACON
07:06PM 39.8667 -75.4833 298° West 303 349 7,100 3,180 Climbing Philadelphia TRACON
07:07PM 39.9086 -75.4906 352° North 275 316 9,300 2,940 Climbing New York Center
07:08PM 39.9972 -75.5128 349° North 361 415 12,000 1,320 Climbing New York Center
07:09PM 40.0800 -75.5292 351° North 356 410 12,000 660 Level New York Center
07:10PM 40.1811 -75.5553 349° North 344 396 13,400 2,220 Climbing New York Center
07:11PM 40.2558 -75.6147 329° Northwest 351 404 16,600 1,740 Climbing New York Center
07:12PM 40.3325 -75.7264 312° West 360 414 17,000 720 Climbing New York Center
07:13PM 40.3992 -75.8264 311° West 372 428 18,100 1,800 Climbing New York Center
07:14PM 40.4500 -75.9503 298° West 382 440 20,700 2,580 Climbing New York Center
07:15PM 40.4706 -76.0964 281° West 390 449 23,300 2,400 Climbing New York Center
07:16PM 40.4911 -76.2428 281° West 401 461 25,600 2,100 Climbing New York Center
07:17PM 40.5150 -76.3975 282° West 416 479 27,500 1,980 Climbing New York Center
07:18PM 40.5364 -76.5578 280° West 428 493 29,500 1,980 Climbing New York Center
07:19PM 40.5619 -76.7156 282° West 440 506 31,500 1,860 Climbing New York Center
07:20PM 40.5833 -76.8678 281° West 433 498 33,400 1,260 Climbing New York Center
07:21PM 40.6064 -77.0256 281° West 433 498 34,000 300 Climbing New York Center
07:22PM 40.6294 -77.1811 281° West 433 498 34,000  Level New York Center
07:24PM 40.6661 -77.4433 281° West 438 504 34,000  Level Cleveland Center
07:25PM 40.6869 -77.5956 280° West 433 498 34,000  Level Cleveland Center
07:26PM 40.7075 -77.7481 280° West 428 493 34,000  Level Cleveland Center
07:27PM 40.7278 -77.8981 280° West 428 493 34,000  Level Cleveland Center
07:28PM 40.7478 -78.0506 280° West 428 493 34,000  Level Cleveland Center
07:29PM 40.7678 -78.2061 280° West 428 493 34,000  Level Cleveland Center
07:30PM 40.7897 -78.3589 281° West 428 493 34,000  Level Cleveland Center
07:31PM 40.8092 -78.5119 280° West 428 493 34,000  Level Cleveland Center
07:32PM 40.8286 -78.6678 279° West 428 493 34,000  Level Cleveland Center
07:33PM 40.8478 -78.8236 279° West 428 493 34,000  Level Cleveland Center
07:34PM 40.8689 -78.9742 281° West 428 493 34,000  Level Cleveland Center
07:35PM 40.8897 -79.1247 280° West 428 493 34,000  Level Cleveland Center
07:36PM 40.9081 -79.2753 279° West 428 493 34,000  Level Cleveland Center
07:37PM 40.9286 -79.4453 279° West 433 498 34,000  Level Cleveland Center
07:38PM 40.9447 -79.6017 278° West 433 498 34,000  Level Cleveland Center
07:39PM 40.9647 -79.7528 280° West 427 491 34,000  Level Cleveland Center
07:40PM 40.9825 -79.9092 279° West 427 491 34,000  Level Cleveland Center
07:41PM 41.0000 -80.0603 279° West 427 491 34,000  Level Cleveland Center
07:42PM 41.0192 -80.2144 279° West 427 491 34,000  Level Cleveland Center
07:43PM 41.0364 -80.3739 278° West 427 491 34,000  Level Cleveland Center
07:44PM 41.0531 -80.5253 278° West 427 491 34,000  Level Cleveland Center
07:45PM 41.0697 -80.6822 278° West 427 491 34,000  Level Cleveland Center
07:46PM 41.0864 -80.8339 278° West 427 491 34,000  Level Cleveland Center
07:47PM 41.1025 -80.9881 278° West 427 491 34,000  Level Cleveland Center
07:48PM 41.1164 -81.1317 277° West 427 491 34,000  Level Cleveland Center
07:49PM 41.1322 -81.2861 278° West 427 491 34,000  Level Cleveland Center
07:50PM 41.1519 -81.4517 279° West 427 491 34,000  Level Cleveland Center
07:51PM 41.1675 -81.6064 278° West 427 491 34,000  Level Cleveland Center
07:52PM 41.1825 -81.7611 277° West 427 491 34,000  Level Cleveland Center
07:53PM 41.1997 -81.9133 279° West 427 491 34,000  Level Cleveland Center
07:54PM 41.2144 -82.0708 277° West 427 491 34,000  Level Cleveland Center
07:55PM 41.2247 -82.2314 275° West 439 505 34,000  Level Cleveland Center
07:56PM 41.2389 -82.3889 277° West 444 511 34,000  Level Cleveland Center
07:57PM 41.2533 -82.5275 278° West 435 501 34,000  Level Cleveland Center
07:58PM 41.2672 -82.6828 277° West 427 491 34,000  Level Cleveland Center
07:59PM 41.2811 -82.8378 277° West 427 491 34,000  Level Cleveland Center
08:00PM 41.2944 -82.9931 277° West 427 491 34,000  Level Cleveland Center
08:01PM 41.3078 -83.1483 277° West 427 491 34,000  Level Cleveland Center
08:02PM 41.3211 -83.3011 277° West 427 491 34,000  Level Cleveland Center
08:03PM 41.3361 -83.4567 277° West 427 491 34,000  Level Cleveland Center
08:04PM 41.3486 -83.6119 276° West 427 491 34,000  Level Cleveland Center
08:05PM 41.3611 -83.7675 276° West 427 491 34,000  Level Cleveland Center
08:06PM 41.3733 -83.9258 276° West 427 491 34,000  Level Cleveland Center
08:07PM 41.3853 -84.0789 276° West 427 491 34,000 -720 Level Cleveland Center
08:09PM 41.4169 -84.4464 277° West 423 487 31,700 -1,200 Descending Chicago Center
08:10PM 41.4286 -84.5950 276° West 407 468 30,000 -780 Descending Chicago Center
08:12PM 41.4425 -84.8069 275° West 413 475 30,000  Level Chicago Center
08:13PM 41.4547 -84.9744 276° West 449 517 30,000 -540 Level Chicago Center
08:14PM 41.4667 -85.1406 276° West 451 519 28,900 -1,740 Descending Chicago Center
08:15PM 41.4781 -85.3053 275° West 443 510 26,500 -2,340 Descending Chicago Center
08:16PM 41.4878 -85.4647 275° West 428 493 24,100 -1,260 Descending Chicago Center
08:17PM 41.4983 -85.6197 275° West 413 475 23,900 -1,380 Descending Chicago Center
08:18PM 41.5089 -85.7753 275° West 419 482 21,300 -2,700 Descending Chicago Center
08:19PM 41.5203 -85.9539 275° West 404 465 18,400 -2,700 Descending Chicago Center
08:20PM 41.5247 -86.1022 272° West 403 464 15,800 -2,460 Descending Chicago Center
08:21PM 41.5231 -86.2439 269° West 387 445 13,400 -2,280 Descending Chicago Center
08:22PM 41.5233 -86.3800 270° West 371 427 11,100 -1,440 Descending Chicago Center
08:23PM 41.5214 -86.5108 269° West 356 410 10,500 -540 Descending Chicago Center
08:24PM 41.5203 -86.6375 269° West 345 397 10,000 -240 Descending Chicago Center
08:25PM 41.5194 -86.7661 270° West 341 392 10,000 -300 Level Chicago Center
08:26PM 41.5192 -86.9061 270° West 315 362 9,400 -1,020 Descending Chicago Center
08:27PM 41.5175 -87.0131 269° West 294 338 7,900 -1,500 Descending Chicago Center
08:28PM 41.5156 -87.1200 269° West 292 336 6,400 -1,440 Descending Chicago Center
08:29PM 41.5167 -87.2167 271° West 284 327 5,400 -1,440 Descending Chicago TRACON
08:30PM 41.5167 -87.3167 270° West 280 322 4,000 -720 Descending Chicago TRACON
08:31PM 41.5167 -87.4167 270° West 277 319 4,000  Level Chicago TRACON
08:31PM 41.5158 -87.4511 268° West 279 321 4,000  Level Chicago Center
08:32PM 41.5317 -87.5533 282° West 281 323 4,000  Level Chicago Center
08:33PM 41.5475 -87.6539 282° West 281 323 4,000 -240 Level Chicago Center
08:34PM 41.5608 -87.7506 280° West 276 318 3,600 -540 Descending Chicago Center
08:35PM 41.5728 -87.8506 279° West 248 285 3,000 -540 Descending Chicago Center
08:36PM 41.5978 -87.9192 296° West 229 264 2,500 -240 Descending Chicago Center
08:37PM 41.6375 -87.9158 North 177 204 2,500  Level Chicago Center
08:38PM 41.6725 -87.8964 23° Northeast 150 173 2,500  Level Chicago Center
08:40PM 41.6986 -87.8619 45° Northeast 138 159 2,500  Level Chicago Center
08:40PM 41.7167 -87.8500 26° Northeast 130 150 2,500 -480 Level Chicago TRACON
08:41PM 41.7333 -87.8167 56° Northeast 120 138 1,900 -600 Descending Chicago TRACON
08:43PM 41.7744 -87.7664 42° Northeast 123 142 1,000 -540 Descending Chicago Center